createdAt,value
2023-05-20T00:02:03.637Z,1.50
2023-05-20T00:04:30.575Z,1.30
2023-05-20T00:06:57.493Z,1.50
2023-05-20T00:09:24.211Z,1.50
2023-05-20T00:11:50.999Z,1.70
2023-05-20T00:14:17.647Z,1.63
2023-05-20T00:16:44.407Z,1.50
2023-05-20T00:19:11.285Z,1.50
2023-05-20T00:21:38.081Z,1.63
2023-05-20T00:24:04.910Z,1.40
2023-05-20T00:26:31.911Z,1.30
2023-05-20T00:28:58.799Z,1.57
2023-05-20T00:31:25.685Z,1.30
2023-05-20T00:33:52.396Z,1.50
2023-05-20T00:36:19.296Z,1.67
2023-05-20T00:38:46.060Z,1.60
2023-05-20T00:41:12.711Z,1.63
2023-05-20T00:43:39.410Z,1.50
2023-05-20T00:46:06.151Z,1.50
2023-05-20T00:48:44.835Z,1.50
2023-05-20T00:51:13.048Z,1.40
2023-05-20T00:53:41.445Z,2.20
2023-05-20T00:56:08.935Z,1.80
2023-05-20T00:58:37.940Z,1.73
2023-05-20T01:01:05.527Z,1.70
2023-05-20T01:03:33.383Z,1.57
2023-05-20T01:06:01.090Z,1.77
2023-05-20T01:08:28.693Z,1.80
2023-05-20T01:11:09.226Z,1.90
2023-05-20T01:13:53.202Z,1.50
2023-05-20T01:16:23.301Z,1.40
2023-05-20T01:18:55.170Z,1.70
2023-05-20T01:21:22.170Z,1.70
2023-05-20T01:23:49.281Z,1.83
2023-05-20T01:26:17.120Z,1.63
2023-05-20T01:28:45.668Z,1.70
2023-05-20T01:31:21.431Z,1.80
2023-05-20T01:33:52.250Z,1.57
2023-05-20T01:36:21.486Z,1.60
2023-05-20T01:38:50.595Z,1.60
2023-05-20T01:41:18.350Z,1.80
2023-05-20T01:43:45.457Z,1.50
2023-05-20T01:46:12.503Z,1.83
2023-05-20T01:48:39.256Z,1.90
2023-05-20T01:51:06.070Z,1.60
2023-05-20T01:53:32.920Z,1.70
2023-05-20T01:55:59.688Z,1.70
2023-05-20T01:58:26.789Z,1.87
2023-05-20T02:00:53.513Z,1.57
2023-05-20T02:03:20.265Z,1.90
2023-05-20T02:05:47.035Z,1.90
2023-05-20T02:08:13.733Z,1.93
2023-05-20T02:10:40.440Z,1.90
2023-05-20T02:13:07.155Z,1.70
2023-05-20T02:15:34.684Z,1.80
2023-05-20T02:18:02.444Z,2.07
2023-05-20T02:20:29.261Z,1.90
2023-05-20T02:22:56.054Z,1.77
2023-05-20T02:25:22.803Z,1.80
2023-05-20T02:27:49.487Z,1.97
2023-05-20T02:30:17.285Z,2.10
2023-05-20T02:32:44.074Z,2.03
2023-05-20T02:35:11.835Z,1.93
2023-05-20T02:37:39.418Z,1.83
2023-05-20T02:40:07.007Z,1.87
2023-05-20T02:42:33.747Z,1.77
2023-05-20T02:45:00.933Z,1.80
2023-05-20T02:47:27.795Z,1.83
2023-05-20T02:49:54.539Z,2.00
2023-05-20T02:52:21.985Z,1.87
2023-05-20T02:54:48.689Z,1.97
2023-05-20T02:57:16.253Z,1.80
2023-05-20T02:59:42.997Z,1.73
2023-05-20T03:02:09.816Z,1.77
2023-05-20T03:04:38.762Z,1.87
2023-05-20T03:07:09.201Z,1.80
2023-05-20T03:09:36.024Z,1.97
2023-05-20T03:12:02.791Z,1.73
2023-05-20T03:14:30.303Z,1.83
2023-05-20T03:16:57.674Z,1.97
2023-05-20T03:19:24.484Z,2.40
2023-05-20T03:21:51.299Z,1.80
2023-05-20T03:24:18.225Z,2.20
2023-05-20T03:26:47.049Z,1.80
2023-05-20T03:29:13.965Z,1.90
2023-05-20T03:31:40.910Z,2.33
2023-05-20T03:34:08.251Z,1.87
2023-05-20T03:36:35.320Z,2.30
2023-05-20T03:39:04.153Z,1.90
2023-05-20T03:41:32.410Z,1.97
2023-05-20T03:43:59.119Z,2.10
2023-05-20T03:46:26.878Z,2.20
2023-05-20T03:48:53.618Z,2.10
2023-05-20T03:51:20.311Z,2.10
2023-05-20T03:53:50.333Z,2.30
2023-05-20T03:56:17.085Z,2.23
2023-05-20T03:58:44.244Z,2.10
2023-05-20T04:01:13.181Z,2.20
2023-05-20T04:03:42.195Z,2.20
2023-05-20T04:06:09.071Z,2.00
2023-05-20T04:08:36.709Z,1.97
2023-05-20T04:11:03.936Z,2.10
2023-05-20T04:13:30.791Z,2.00
2023-05-20T04:15:57.718Z,2.67
2023-05-20T04:18:24.816Z,2.07
2023-05-20T04:20:56.428Z,2.10
2023-05-20T04:23:23.970Z,2.13
2023-05-20T04:25:50.809Z,2.23
2023-05-20T04:28:17.508Z,2.40
2023-05-20T04:30:45.170Z,2.10
2023-05-20T04:33:12.794Z,2.27
2023-05-20T04:35:41.686Z,2.20
2023-05-20T04:38:09.550Z,2.37
2023-05-20T04:40:36.270Z,2.40
2023-05-20T04:43:04.185Z,2.33
2023-05-20T04:45:31.412Z,1.97
2023-05-20T04:47:58.549Z,2.30
2023-05-20T04:50:25.333Z,2.57
2023-05-20T04:52:52.173Z,2.53
2023-05-20T04:55:19.802Z,2.23
2023-05-20T04:57:46.703Z,2.30
2023-05-20T05:00:13.821Z,2.43
2023-05-20T05:02:41.482Z,2.40
2023-05-20T05:05:08.655Z,2.33
2023-05-20T05:07:35.768Z,2.10
2023-05-20T05:10:02.577Z,2.27
2023-05-20T05:12:33.486Z,2.50
2023-05-20T05:15:00.424Z,2.30
2023-05-20T05:17:28.985Z,2.30
2023-05-20T05:19:57.243Z,2.20
2023-05-20T05:22:24.411Z,2.47
2023-05-20T05:24:52.278Z,2.50
2023-05-20T05:27:19.062Z,2.07
2023-05-20T05:29:45.843Z,2.40
2023-05-20T05:32:12.554Z,2.40
2023-05-20T05:34:39.249Z,2.00
2023-05-20T05:37:06.306Z,2.37
2023-05-20T05:39:34.517Z,2.03
2023-05-20T05:42:01.326Z,2.30
2023-05-20T05:44:28.245Z,2.03
2023-05-20T05:46:55.149Z,2.07
2023-05-20T05:49:22.236Z,2.50
2023-05-20T05:51:50.914Z,2.47
2023-05-20T05:54:19.167Z,1.93
2023-05-20T05:56:45.938Z,2.00
2023-05-20T05:59:13.041Z,2.37
2023-05-20T06:01:40.500Z,2.27
2023-05-20T06:04:07.396Z,2.20
2023-05-20T06:06:35.097Z,2.30
2023-05-20T06:09:01.833Z,2.30
2023-05-20T06:11:29.115Z,2.10
2023-05-20T06:13:55.988Z,2.17
2023-05-20T06:16:22.778Z,2.20
2023-05-20T06:18:51.310Z,2.20
2023-05-20T06:21:18.683Z,2.40
2023-05-20T06:23:45.386Z,2.10
2023-05-20T06:26:13.331Z,2.30
2023-05-20T06:28:40.133Z,2.20
2023-05-20T06:31:07.971Z,2.50
2023-05-20T06:33:36.632Z,2.40
2023-05-20T06:36:08.053Z,2.67
2023-05-20T06:38:34.830Z,2.47
2023-05-20T06:41:02.193Z,2.73
2023-05-20T06:43:29.892Z,2.40
2023-05-20T06:46:10.384Z,2.47
2023-05-20T06:48:59.969Z,2.87
2023-05-20T06:51:28.132Z,2.70
2023-05-20T06:53:55.881Z,2.70
2023-05-20T06:56:22.690Z,2.77
2023-05-20T06:58:49.404Z,2.70
2023-05-20T07:01:18.140Z,2.70
2023-05-20T07:03:46.118Z,2.83
2023-05-20T07:06:12.918Z,2.77
2023-05-20T07:08:39.755Z,3.03
2023-05-20T07:11:06.893Z,2.60
2023-05-20T07:13:33.621Z,2.90
2023-05-20T07:16:00.331Z,2.93
2023-05-20T07:18:28.470Z,2.80
2023-05-20T07:20:59.510Z,3.00
2023-05-20T07:23:35.982Z,2.70
2023-05-20T07:26:02.816Z,2.73
2023-05-20T07:28:29.553Z,2.87
2023-05-20T07:30:58.027Z,2.80
2023-05-20T07:33:29.860Z,3.20
2023-05-20T07:35:56.921Z,2.80
2023-05-20T07:38:23.595Z,3.00
2023-05-20T07:40:56.801Z,3.00
2023-05-20T07:43:24.286Z,2.90
2023-05-20T07:45:51.139Z,3.40
2023-05-20T07:48:17.835Z,3.00
2023-05-20T07:50:44.781Z,2.90
2023-05-20T07:53:12.052Z,3.30
2023-05-20T07:55:39.314Z,3.40
2023-05-20T07:58:06.915Z,3.20
2023-05-20T08:00:35.818Z,3.40
2023-05-20T08:03:08.021Z,3.17
2023-05-20T08:05:54.522Z,3.13
2023-05-20T08:08:21.439Z,3.20
2023-05-20T08:10:53.864Z,3.23
2023-05-20T08:13:23.840Z,3.17
2023-05-20T08:15:53.517Z,2.70
2023-05-20T08:18:20.325Z,2.80
2023-05-20T08:20:47.649Z,3.33
2023-05-20T08:23:14.428Z,3.20
2023-05-20T08:25:41.906Z,2.97
2023-05-20T08:28:09.482Z,3.00
2023-05-20T08:30:38.007Z,3.20
2023-05-20T08:33:04.861Z,3.03
2023-05-20T08:35:32.068Z,2.80
2023-05-20T08:37:58.896Z,3.60
2023-05-20T08:40:27.306Z,3.40
2023-05-20T08:42:54.087Z,3.57
2023-05-20T08:45:27.708Z,3.20
2023-05-20T08:48:00.273Z,3.47
2023-05-20T08:50:27.377Z,4.23
2023-05-20T08:52:54.361Z,3.50
2023-05-20T08:55:43.351Z,3.77
2023-05-20T08:58:10.564Z,3.70
2023-05-20T09:00:37.444Z,4.00
2023-05-20T09:03:05.368Z,3.23
2023-05-20T09:05:32.832Z,3.87
2023-05-20T09:08:10.548Z,3.73
2023-05-20T09:10:39.067Z,3.77
2023-05-20T09:13:07.456Z,3.43
2023-05-20T09:15:35.808Z,3.53
2023-05-20T09:18:04.542Z,3.57
2023-05-20T09:20:34.035Z,3.83
2023-05-20T09:23:02.308Z,2.97
2023-05-20T09:25:32.481Z,3.47
2023-05-20T09:27:59.404Z,3.33
2023-05-20T09:30:26.689Z,3.23
2023-05-20T09:32:58.209Z,3.30
2023-05-20T09:35:26.888Z,3.28
2023-05-20T09:37:57.958Z,3.30
2023-05-20T09:40:29.251Z,3.50
2023-05-20T09:43:08.241Z,3.42
2023-05-20T09:45:35.298Z,3.45
2023-05-20T09:48:03.235Z,3.67
2023-05-20T09:50:31.615Z,3.40
2023-05-20T09:53:03.776Z,3.58
2023-05-20T09:55:30.894Z,3.70
2023-05-20T09:57:59.110Z,3.30
2023-05-20T10:00:26.016Z,3.90
2023-05-20T10:02:53.500Z,3.40
2023-05-20T10:05:24.080Z,3.58
2023-05-20T10:08:32.888Z,3.65
2023-05-20T10:11:12.648Z,3.28
2023-05-20T10:14:19.093Z,4.15
2023-05-20T10:17:02.641Z,3.92
2023-05-20T10:19:34.473Z,3.63
2023-05-20T10:22:02.123Z,3.72
2023-05-20T10:24:36.366Z,3.47
2023-05-20T10:27:07.497Z,3.40
2023-05-20T10:29:54.971Z,3.72
2023-05-20T10:32:29.548Z,4.00
2023-05-20T10:35:05.083Z,3.97
2023-05-20T10:37:34.448Z,3.78
2023-05-20T10:40:09.088Z,3.58
2023-05-20T10:42:35.764Z,4.05
2023-05-20T10:45:03.833Z,3.55
2023-05-20T10:47:31.587Z,3.35
2023-05-20T10:49:58.679Z,3.60
2023-05-20T10:52:25.809Z,3.90
2023-05-20T10:55:00.364Z,3.47
2023-05-20T10:57:28.577Z,4.00
2023-05-20T10:59:56.545Z,4.20
2023-05-20T11:02:27.100Z,3.70
2023-05-20T11:04:56.575Z,3.42
2023-05-20T11:07:27.647Z,3.75
2023-05-20T11:09:58.212Z,3.70
2023-05-20T11:12:26.460Z,3.72
2023-05-20T11:14:53.862Z,3.80
2023-05-20T11:17:20.886Z,3.20
2023-05-20T11:19:48.493Z,3.67
2023-05-20T11:22:15.558Z,3.38
2023-05-20T11:24:42.396Z,3.00
2023-05-20T11:27:09.494Z,3.40
2023-05-20T11:29:36.425Z,3.50
2023-05-20T11:32:03.306Z,3.05
2023-05-20T11:34:36.308Z,3.53
2023-05-20T11:37:07.618Z,3.50
2023-05-20T11:39:34.616Z,3.80
2023-05-20T11:42:01.360Z,3.42
2023-05-20T11:44:28.171Z,3.50
2023-05-20T11:47:00.533Z,3.83
2023-05-20T11:49:27.774Z,3.93
2023-05-20T11:51:54.451Z,3.63
2023-05-20T11:54:22.928Z,3.80
2023-05-20T11:56:50.025Z,3.77
2023-05-20T11:59:16.747Z,3.67
2023-05-20T12:01:43.708Z,3.73
2023-05-20T12:04:11.094Z,4.10
2023-05-20T12:06:38.092Z,4.00
2023-05-20T12:09:07.322Z,4.00
2023-05-20T12:11:35.784Z,3.97
2023-05-20T12:14:06.171Z,4.00
2023-05-20T12:16:33.952Z,3.90
2023-05-20T12:19:01.162Z,4.07
2023-05-20T12:21:31.620Z,4.10
2023-05-20T12:24:01.616Z,3.77
2023-05-20T12:26:29.348Z,4.43
2023-05-20T12:28:56.729Z,4.13
2023-05-20T12:31:23.898Z,3.90
2023-05-20T12:33:50.719Z,3.90
2023-05-20T12:36:17.511Z,4.07
2023-05-20T12:38:44.436Z,4.37
2023-05-20T12:41:11.223Z,3.73
2023-05-20T12:43:38.055Z,3.97
2023-05-20T12:46:05.774Z,4.30
2023-05-20T12:48:32.566Z,4.10
2023-05-20T12:51:00.168Z,4.17
2023-05-20T12:53:26.875Z,3.90
2023-05-20T12:55:53.701Z,4.10
2023-05-20T12:58:20.665Z,3.80
2023-05-20T13:00:47.402Z,4.33
2023-05-20T13:03:14.448Z,4.80
2023-05-20T13:05:41.294Z,3.90
2023-05-20T13:08:10.034Z,3.63
2023-05-20T13:10:37.164Z,3.97
2023-05-20T13:13:04.382Z,4.20
2023-05-20T13:15:33.057Z,4.00
2023-05-20T13:18:01.373Z,4.37
2023-05-20T13:20:29.056Z,3.90
2023-05-20T13:22:55.705Z,3.80
2023-05-20T13:25:22.415Z,4.23
2023-05-20T13:27:49.107Z,4.00
2023-05-20T13:30:16.115Z,4.10
2023-05-20T13:32:42.878Z,4.17
2023-05-20T13:35:09.819Z,4.50
2023-05-20T13:37:36.511Z,4.70
2023-05-20T13:40:03.395Z,4.10
2023-05-20T13:42:30.151Z,4.00
2023-05-20T13:44:57.022Z,4.53
2023-05-20T13:47:23.813Z,3.83
2023-05-20T13:49:50.551Z,4.60
2023-05-20T13:52:17.409Z,4.63
2023-05-20T13:54:46.639Z,4.63
2023-05-20T13:57:13.687Z,4.37
2023-05-20T13:59:40.615Z,4.50
2023-05-20T14:02:08.233Z,4.63
2023-05-20T14:04:39.760Z,4.93
2023-05-20T14:07:09.270Z,4.60
2023-05-20T14:09:36.761Z,4.53
2023-05-20T14:12:04.344Z,4.90
2023-05-20T14:14:31.355Z,4.70
2023-05-20T14:16:58.366Z,4.17
2023-05-20T14:19:27.107Z,5.00
2023-05-20T14:21:54.205Z,4.80
2023-05-20T14:24:22.998Z,4.47
2023-05-20T14:26:50.703Z,4.83
2023-05-20T14:29:17.618Z,4.77
2023-05-20T14:31:44.731Z,5.10
2023-05-20T14:34:11.501Z,4.70
2023-05-20T14:36:38.765Z,4.97
2023-05-20T14:39:05.657Z,4.80
2023-05-20T14:41:32.435Z,4.70
2023-05-20T14:43:59.404Z,4.97
2023-05-20T14:46:26.458Z,4.80
2023-05-20T14:48:53.178Z,5.63
2023-05-20T14:51:20.271Z,6.10
2023-05-20T14:53:46.926Z,4.80
2023-05-20T14:56:13.624Z,5.20
2023-05-20T14:58:40.667Z,4.80
2023-05-20T15:01:07.506Z,5.23
2023-05-20T15:03:34.430Z,5.10
2023-05-20T15:06:01.644Z,5.20
2023-05-20T15:08:28.317Z,5.37
2023-05-20T15:10:55.166Z,5.20
2023-05-20T15:13:21.940Z,5.07
2023-05-20T15:15:48.714Z,5.97
2023-05-20T15:18:15.518Z,5.37
2023-05-20T15:20:42.579Z,5.80
2023-05-20T15:23:09.551Z,5.17
2023-05-20T15:25:36.519Z,5.53
2023-05-20T15:28:03.450Z,5.43
2023-05-20T15:30:30.153Z,6.20
2023-05-20T15:32:57.172Z,6.00
2023-05-20T15:35:24.049Z,5.20
2023-05-20T15:37:50.969Z,5.33
2023-05-20T15:40:17.950Z,5.40
2023-05-20T15:42:44.905Z,6.10
2023-05-20T15:45:11.960Z,5.60
2023-05-20T15:47:40.699Z,5.70
2023-05-20T15:50:08.629Z,6.00
2023-05-20T15:52:35.652Z,6.10
2023-05-20T15:55:02.745Z,5.50
2023-05-20T15:57:30.647Z,6.10
2023-05-20T15:59:57.560Z,5.17
2023-05-20T16:02:24.939Z,5.00
2023-05-20T16:04:52.336Z,5.57
2023-05-20T16:07:19.175Z,5.40
2023-05-20T16:09:46.052Z,5.37
2023-05-20T16:12:12.852Z,5.50
2023-05-20T16:14:39.554Z,5.63
2023-05-20T16:17:06.292Z,5.20
2023-05-20T16:19:33.192Z,6.10
2023-05-20T16:22:00.195Z,5.43
2023-05-20T16:24:26.994Z,5.93
2023-05-20T16:26:59.434Z,6.10
2023-05-20T16:29:26.202Z,5.70
2023-05-20T16:31:53.184Z,5.83
2023-05-20T16:34:20.075Z,5.93
2023-05-20T16:36:46.913Z,5.20
2023-05-20T16:39:14.677Z,5.93
2023-05-20T16:41:42.262Z,6.00
2023-05-20T16:44:09.332Z,6.10
2023-05-20T16:46:36.302Z,5.80
2023-05-20T16:49:03.104Z,6.27
2023-05-20T16:51:29.807Z,5.50
2023-05-20T16:53:56.588Z,5.93
2023-05-20T16:56:23.624Z,6.50
2023-05-20T16:58:52.825Z,6.10
2023-05-20T17:01:21.478Z,6.00
2023-05-20T17:03:48.859Z,5.80
2023-05-20T17:06:15.725Z,5.87
2023-05-20T17:08:45.130Z,5.23
2023-05-20T17:11:12.015Z,5.43
2023-05-20T17:13:41.408Z,5.23
2023-05-20T17:16:09.884Z,6.03
2023-05-20T17:18:37.160Z,5.57
2023-05-20T17:21:03.934Z,5.73
2023-05-20T17:23:30.849Z,5.53
2023-05-20T17:25:57.613Z,6.00
2023-05-20T17:28:24.395Z,5.97
2023-05-20T17:30:51.491Z,6.20
2023-05-20T17:33:18.371Z,6.10
2023-05-20T17:35:45.211Z,6.70
2023-05-20T17:38:11.967Z,5.93
2023-05-20T17:40:38.692Z,6.20
2023-05-20T17:43:05.505Z,5.70
2023-05-20T17:45:32.173Z,6.10
2023-05-20T17:47:58.987Z,6.10
2023-05-20T17:50:25.867Z,6.10
2023-05-20T17:52:52.544Z,6.00
2023-05-20T17:55:21.958Z,6.60
2023-05-20T17:57:48.691Z,6.27
2023-05-20T18:00:17.952Z,6.10
2023-05-20T18:02:47.981Z,6.50
2023-05-20T18:05:16.853Z,6.40
2023-05-20T18:07:43.827Z,6.00
2023-05-20T18:10:11.696Z,6.20
2023-05-20T18:12:38.456Z,6.37
2023-05-20T18:15:06.405Z,6.80
2023-05-20T18:17:33.140Z,5.80
2023-05-20T18:20:00.061Z,6.10
2023-05-20T18:22:27.019Z,6.30
2023-05-20T18:24:53.652Z,6.53
2023-05-20T18:27:20.448Z,6.20
2023-05-20T18:29:47.138Z,6.77
2023-05-20T18:32:14.334Z,6.93
2023-05-20T18:34:41.051Z,6.43
2023-05-20T18:37:07.956Z,6.67
2023-05-20T18:39:34.675Z,7.17
2023-05-20T18:42:01.457Z,6.70
2023-05-20T18:44:28.224Z,6.73
2023-05-20T18:46:54.949Z,6.77
2023-05-20T18:49:21.647Z,6.47
2023-05-20T18:51:48.342Z,6.60
2023-05-20T18:54:14.995Z,7.20
2023-05-20T18:56:41.682Z,6.80
2023-05-20T18:59:08.486Z,7.17
2023-05-20T19:01:36.494Z,7.17
2023-05-20T19:04:03.497Z,6.57
2023-05-20T19:06:31.249Z,7.07
2023-05-20T19:08:58.051Z,6.73
2023-05-20T19:11:24.700Z,6.93
2023-05-20T19:13:51.394Z,7.37
2023-05-20T19:16:18.153Z,6.53
2023-05-20T19:18:44.914Z,6.60
2023-05-20T19:21:11.706Z,6.87
2023-05-20T19:23:38.412Z,6.73
2023-05-20T19:26:05.442Z,6.70
2023-05-20T19:28:32.127Z,6.43
2023-05-20T19:30:58.912Z,6.23
2023-05-20T19:33:25.664Z,6.90
2023-05-20T19:35:52.338Z,6.70
2023-05-20T19:38:19.144Z,6.23
2023-05-20T19:40:46.956Z,6.73
2023-05-20T19:43:13.755Z,6.90
2023-05-20T19:45:40.600Z,6.63
2023-05-20T19:48:07.563Z,7.00
2023-05-20T19:50:34.423Z,6.70
2023-05-20T19:53:03.312Z,6.87
2023-05-20T19:55:30.083Z,6.40
2023-05-20T19:57:57.164Z,6.37
2023-05-20T20:00:24.157Z,7.47
2023-05-20T20:02:51.273Z,6.63
2023-05-20T20:05:18.333Z,6.93
2023-05-20T20:07:45.941Z,6.40
2023-05-20T20:10:12.619Z,6.83
2023-05-20T20:12:39.299Z,6.33
2023-05-20T20:15:06.643Z,6.33
2023-05-20T20:17:33.664Z,6.93
2023-05-20T20:20:00.989Z,7.00
2023-05-20T20:22:27.889Z,6.63
2023-05-20T20:24:54.577Z,6.70
2023-05-20T20:27:23.574Z,6.70
2023-05-20T20:29:50.365Z,6.73
2023-05-20T20:32:17.154Z,6.90
2023-05-20T20:34:43.887Z,7.10
2023-05-20T20:37:14.542Z,6.57
2023-05-20T20:39:41.315Z,7.20
2023-05-20T20:42:08.077Z,7.23
2023-05-20T20:44:34.761Z,6.93
2023-05-20T20:47:04.106Z,7.60
2023-05-20T20:49:32.020Z,7.17
2023-05-20T20:51:59.041Z,6.97
2023-05-20T20:54:26.285Z,7.70
2023-05-20T20:56:56.425Z,7.77
2023-05-20T20:59:26.841Z,7.00
2023-05-20T21:01:54.286Z,7.20
2023-05-20T21:04:21.319Z,7.27
2023-05-20T21:06:48.100Z,7.20
2023-05-20T21:09:15.429Z,7.60
2023-05-20T21:11:42.578Z,7.90
2023-05-20T21:14:10.068Z,7.57
2023-05-20T21:16:37.115Z,7.57
2023-05-20T21:19:04.781Z,7.37
2023-05-20T21:21:31.740Z,7.70
2023-05-20T21:23:58.561Z,7.47
2023-05-20T21:26:25.687Z,7.60
2023-05-20T21:28:52.733Z,7.27
2023-05-20T21:31:19.561Z,7.17
2023-05-20T21:33:46.361Z,7.37
2023-05-20T21:36:13.124Z,7.13
2023-05-20T21:38:39.883Z,7.93
2023-05-20T21:41:07.260Z,7.30
2023-05-20T21:43:34.196Z,7.67
2023-05-20T21:46:01.024Z,7.90
2023-05-20T21:48:27.836Z,7.67
2023-05-20T21:50:54.505Z,7.83
2023-05-20T21:53:21.253Z,7.43
2023-05-20T21:55:48.107Z,8.13
2023-05-20T21:58:14.820Z,7.83
2023-05-20T22:00:41.672Z,7.73
2023-05-20T22:03:08.510Z,7.37
2023-05-20T22:05:35.456Z,8.30
2023-05-20T22:08:02.865Z,8.03
2023-05-20T22:10:29.583Z,7.83
2023-05-20T22:12:58.094Z,8.47
2023-05-20T22:15:24.887Z,8.33
2023-05-20T22:17:51.696Z,8.27
2023-05-20T22:20:18.463Z,8.07
2023-05-20T22:22:45.186Z,8.20
2023-05-20T22:25:12.564Z,8.03
2023-05-20T22:27:42.920Z,7.83
2023-05-20T22:30:11.778Z,8.47
2023-05-20T22:32:39.071Z,7.47
2023-05-20T22:35:06.585Z,8.37
2023-05-20T22:37:33.513Z,8.47
2023-05-20T22:40:00.560Z,8.30
2023-05-20T22:42:27.285Z,8.73
2023-05-20T22:44:54.014Z,8.73
2023-05-20T22:47:21.159Z,8.70
2023-05-20T22:49:47.864Z,9.23
2023-05-20T22:52:14.605Z,9.40
2023-05-20T22:54:41.313Z,8.90
2023-05-20T22:57:08.309Z,9.30
2023-05-20T22:59:36.526Z,9.27
2023-05-20T23:02:04.390Z,8.67
2023-05-20T23:04:31.193Z,9.77
2023-05-20T23:06:59.425Z,9.47
2023-05-20T23:09:26.544Z,9.40
2023-05-20T23:11:53.232Z,8.93
2023-05-20T23:14:20.045Z,9.57
2023-05-20T23:16:47.084Z,10.53
2023-05-20T23:19:14.271Z,9.70
2023-05-20T23:21:41.050Z,9.87
2023-05-20T23:24:07.831Z,11.00
2023-05-20T23:26:34.642Z,10.50
2023-05-20T23:29:01.569Z,10.40
2023-05-20T23:31:29.897Z,9.57
2023-05-20T23:33:59.684Z,10.83
2023-05-20T23:36:28.924Z,9.70
2023-05-20T23:38:56.537Z,10.87
2023-05-20T23:41:24.385Z,11.50
2023-05-20T23:43:51.316Z,9.63
2023-05-20T23:46:19.157Z,10.40
2023-05-20T23:48:48.298Z,10.07
2023-05-20T23:51:16.237Z,10.37
2023-05-20T23:53:44.030Z,10.20
2023-05-20T23:56:11.315Z,9.50
2023-05-20T23:58:38.175Z,9.80
